aviador You're here:

KASH Decoded Metar

NASHUA/BOIRE FLD in NH, USA
Report Time2018-01-19 10:56:00
UTC Time2018-01-19 11:25:10
Flight Rules vfr VFR
Wind130° at 03 kt
W.Decomp.*RWY 14: 3.0 kt HW 0.3 kt RCW
W.Rank130° ranks 13
Current wind is below 130° avg. (5.5)
Visibility9999 m
Phenomena:N/A
Clouds:Few 050 Hf
Broken 095 Hf
Broken 120 Hf
Ceiling9,500 ft
Temp-8°C (ISA -23)
Dew Point-8°C (100% RH)
AAT-12.0°C
QNH1014 hPa
Density Alt-2,602 ft
Elevation200 ft
Report Wrong Elevation
Raw Report
KASH 191056Z AUTO 13003KT 10SM FEW050 BKN095 BKN120 M08/M08 A2993
RMK AO2 SLP146 T10781083=

Extra information for KASH:More info

Metar Taf Metar & Taf Last 4 Metars F.Rules Stats Wind Profile Meteogram Temp Stats Airport Information Weather charts Add Link Nearby VenuesMetar ALERT Operation Metar Decoded Social comments

AIRNAV info for KASH